Time;durP1;ratioP1;P1;durP2;ratioP2;P2;SDS_P1;SDS_P2;PMS_P1;PMS_P2;Temp;Humidity;BMP_temperature;BMP_pressure;BME280_temperature;BME280_humidity;BME280_pressure;Samples;Min_cycle;Max_cycle;Signal;HPM_P1;HPM_P2
2023/10/13 00:02:05;;;;;;;17.40;16.90;;;22.00;99.90;;;;;;5051180;28;20471;-66
2023/10/13 00:04:35;;;;;;;17.10;16.50;;;22.00;99.90;;;;;;5051224;28;20450;-66
2023/10/13 00:07:04;;;;;;;17.57;16.97;;;22.00;99.90;;;;;;5051122;28;20867;-65
2023/10/13 00:09:33;;;;;;;17.80;17.20;;;22.00;99.90;;;;;;5047963;28;20450;-66
2023/10/13 00:12:00;;;;;;;17.20;16.70;;;22.00;99.90;;;;;;5046980;28;20524;-65
2023/10/13 00:14:33;;;;;;;18.73;18.13;;;21.90;99.90;;;;;;5054912;28;20480;-66
2023/10/13 00:17:03;;;;;;;19.30;18.50;;;22.00;99.90;;;;;;5054872;28;20555;-66
2023/10/13 00:19:37;;;;;;;18.70;18.00;;;22.00;99.90;;;;;;5046648;28;20444;-66
2023/10/13 00:22:09;;;;;;;18.40;17.70;;;22.00;99.90;;;;;;5054988;28;20432;-66
2023/10/13 00:24:42;;;;;;;18.40;17.70;;;22.00;99.90;;;;;;5047208;28;20440;-66
2023/10/13 00:27:24;;;;;;;18.57;17.90;;;21.90;99.90;;;;;;5057571;28;20451;-65
2023/10/13 00:30:04;;;;;;;18.10;17.30;;;21.90;99.90;;;;;;5054813;28;20448;-66
2023/10/13 00:32:37;;;;;;;19.30;18.50;;;22.00;99.90;;;;;;5054781;28;20786;-66
2023/10/13 00:35:06;;;;;;;18.63;17.97;;;21.90;99.90;;;;;;5054671;28;20873;-67
2023/10/13 00:37:41;;;;;;;18.37;17.77;;;22.00;99.90;;;;;;5059228;28;20914;-66
2023/10/13 00:40:19;;;;;;;17.37;16.77;;;21.90;99.90;;;;;;5054605;28;20533;-67
2023/10/13 00:42:50;;;;;;;17.63;16.90;;;21.90;99.90;;;;;;5048233;28;20440;-66
2023/10/13 00:45:18;;;;;;;18.00;17.40;;;22.00;99.90;;;;;;5056582;28;20446;-66
2023/10/13 00:47:49;;;;;;;18.77;18.13;;;21.90;99.90;;;;;;5054394;28;20460;-67
2023/10/13 00:50:17;;;;;;;18.93;18.13;;;21.90;99.90;;;;;;5054564;28;20497;-65
2023/10/13 00:52:46;;;;;;;18.13;17.53;;;21.90;99.90;;;;;;5054317;28;20472;-65
2023/10/13 00:55:17;;;;;;;18.60;17.90;;;21.90;99.90;;;;;;5056195;28;20537;-65
2023/10/13 00:57:43;;;;;;;18.40;17.80;;;21.90;99.90;;;;;;5054281;28;20517;-65
2023/10/13 01:00:18;;;;;;;18.47;17.87;;;21.90;99.90;;;;;;5054083;28;20571;-65
2023/10/13 01:02:54;;;;;;;19.23;18.53;;;21.90;99.90;;;;;;5054444;28;20445;-65
2023/10/13 01:05:22;;;;;;;17.33;16.80;;;21.90;99.90;;;;;;5053965;28;20505;-64
2023/10/13 01:07:52;;;;;;;18.53;17.80;;;21.90;99.90;;;;;;5058572;28;20554;-64
2023/10/13 01:10:20;;;;;;;18.23;17.47;;;21.90;99.90;;;;;;5059142;28;20836;-65
2023/10/13 01:12:47;;;;;;;18.80;18.10;;;21.90;99.90;;;;;;5054057;28;20862;-65
2023/10/13 01:15:17;;;;;;;18.17;17.40;;;21.90;99.90;;;;;;5058082;28;20568;-65
2023/10/13 01:17:45;;;;;;;17.20;16.63;;;21.90;99.90;;;;;;5053840;28;20490;-65
2023/10/13 01:20:20;;;;;;;17.97;17.37;;;21.90;99.90;;;;;;5053626;28;20476;-64
2023/10/13 01:22:55;;;;;;;17.67;17.07;;;21.90;99.90;;;;;;5053865;28;20447;-65
2023/10/13 01:25:25;;;;;;;19.37;18.47;;;21.90;99.90;;;;;;5051282;28;20500;-65
2023/10/13 01:27:52;;;;;;;17.70;17.10;;;21.90;99.90;;;;;;5047858;28;20550;-65
2023/10/13 01:30:24;;;;;;;18.00;17.30;;;21.90;99.90;;;;;;5053715;28;20451;-65
2023/10/13 01:32:51;;;;;;;17.87;17.33;;;21.90;99.90;;;;;;5053859;28;20475;-65
2023/10/13 01:35:24;;;;;;;18.40;17.70;;;21.90;99.90;;;;;;5060226;28;20447;-65
2023/10/13 01:37:50;;;;;;;19.30;18.50;;;21.90;99.90;;;;;;5053444;28;20471;-64
2023/10/13 01:40:19;;;;;;;18.40;17.80;;;21.90;99.90;;;;;;5053347;28;20942;-64
2023/10/13 01:42:55;;;;;;;18.60;18.00;;;21.90;99.90;;;;;;5053737;28;20681;-65
2023/10/13 01:45:21;;;;;;;19.10;18.40;;;21.90;99.90;;;;;;5055253;28;20869;-64
2023/10/13 01:47:50;;;;;;;17.53;16.93;;;21.90;99.90;;;;;;5053306;28;20459;-64
2023/10/13 01:50:20;;;;;;;17.70;17.10;;;21.90;99.90;;;;;;5053198;28;20198;-65
2023/10/13 01:52:47;;;;;;;18.43;17.83;;;21.90;99.90;;;;;;5054453;28;20448;-65
2023/10/13 01:55:15;;;;;;;18.60;18.00;;;21.90;99.90;;;;;;5060109;28;20479;-64
2023/10/13 01:57:42;;;;;;;18.50;17.80;;;21.80;99.90;;;;;;5053238;28;20827;-65
2023/10/13 02:00:18;;;;;;;17.73;17.13;;;21.80;99.90;;;;;;5053418;28;20524;-64
2023/10/13 02:02:45;;;;;;;18.83;18.23;;;21.90;99.90;;;;;;5049884;28;20501;-65
2023/10/13 02:05:15;;;;;;;19.43;18.83;;;21.90;99.90;;;;;;5057546;28;20895;-65
2023/10/13 02:07:45;;;;;;;19.03;18.33;;;21.90;99.90;;;;;;5044670;28;21014;-66
2023/10/13 02:10:13;;;;;;;20.13;19.43;;;21.90;99.90;;;;;;5054859;28;20451;-66
2023/10/13 02:12:42;;;;;;;18.10;17.50;;;21.80;99.90;;;;;;5045455;28;20456;-65
2023/10/13 02:15:12;;;;;;;18.57;17.87;;;21.80;99.90;;;;;;5056622;28;20436;-66
2023/10/13 02:17:42;;;;;;;17.27;16.70;;;21.80;99.90;;;;;;5053012;28;20861;-66
2023/10/13 02:20:14;;;;;;;18.13;17.53;;;21.80;99.90;;;;;;5052734;28;20943;-66
2023/10/13 02:22:48;;;;;;;18.53;17.93;;;21.80;99.90;;;;;;5041019;28;20515;-66
2023/10/13 02:25:34;;;;;;;17.87;17.27;;;21.80;99.90;;;;;;5049337;28;20444;-65
2023/10/13 02:28:00;;;;;;;17.70;17.17;;;21.90;99.90;;;;;;5052669;28;20467;-65
2023/10/13 02:30:29;;;;;;;16.70;16.20;;;21.80;99.90;;;;;;5050458;28;20958;-65
2023/10/13 02:32:55;;;;;;;18.97;18.10;;;21.80;99.90;;;;;;5046554;28;20209;-64
2023/10/13 02:35:29;;;;;;;17.33;16.73;;;21.80;99.90;;;;;;5052153;28;20444;-66
2023/10/13 02:37:58;;;;;;;17.23;16.67;;;21.80;99.90;;;;;;5052278;28;20468;-65
2023/10/13 02:40:25;;;;;;;17.77;17.17;;;21.80;99.90;;;;;;5050542;28;20475;-66
2023/10/13 02:42:51;;;;;;;16.83;16.33;;;21.80;99.90;;;;;;5040568;28;20481;-66
2023/10/13 02:45:21;;;;;;;17.60;17.10;;;21.80;99.90;;;;;;5049156;28;20471;-65
2023/10/13 02:48:09;;;;;;;18.57;17.87;;;21.90;99.90;;;;;;5052248;28;20624;-65
2023/10/13 02:50:38;;;;;;;19.37;18.67;;;21.80;99.90;;;;;;5052085;28;20819;-65
2023/10/13 02:53:05;;;;;;;17.70;17.00;;;21.80;99.90;;;;;;5045134;28;20806;-65
2023/10/13 02:55:32;;;;;;;18.07;17.53;;;21.90;99.90;;;;;;5050929;28;20498;-65
2023/10/13 02:57:58;;;;;;;18.00;17.40;;;21.80;99.90;;;;;;5051944;28;20479;-65
2023/10/13 03:00:31;;;;;;;17.63;17.03;;;21.80;99.90;;;;;;5050302;28;20968;-65
2023/10/13 03:02:58;;;;;;;19.10;18.50;;;21.80;99.90;;;;;;5046366;28;20436;-65
2023/10/13 03:05:29;;;;;;;18.60;18.00;;;21.80;99.90;;;;;;5052087;28;20958;-66
2023/10/13 03:07:55;;;;;;;18.70;18.10;;;21.80;99.90;;;;;;5051838;28;20460;-66
2023/10/13 03:10:28;;;;;;;18.20;17.53;;;21.80;99.90;;;;;;5050664;28;20479;-66
2023/10/13 03:12:55;;;;;;;17.10;16.60;;;21.80;99.90;;;;;;5045660;28;20514;-66
2023/10/13 03:15:30;;;;;;;18.60;17.90;;;21.80;99.90;;;;;;5051495;28;20856;-65
2023/10/13 03:17:58;;;;;;;17.60;17.00;;;21.80;99.90;;;;;;5051629;28;20475;-66
2023/10/13 03:20:31;;;;;;;18.63;18.03;;;21.80;99.90;;;;;;5051537;28;20935;-66
2023/10/13 03:22:57;;;;;;;16.30;15.80;;;21.90;99.90;;;;;;5051500;28;20551;-66
2023/10/13 03:25:29;;;;;;;17.13;16.63;;;21.80;99.90;;;;;;5043031;28;20531;-66
2023/10/13 03:28:01;;;;;;;18.40;17.80;;;21.80;99.90;;;;;;5051417;28;20464;-65
2023/10/13 03:30:34;;;;;;;18.30;17.60;;;21.80;99.90;;;;;;5051508;28;20447;-65
2023/10/13 03:33:06;;;;;;;18.53;17.60;;;21.80;99.90;;;;;;5051804;28;20490;-66
2023/10/13 03:35:39;;;;;;;18.13;17.63;;;21.80;99.90;;;;;;5052870;28;20898;-65
2023/10/13 03:38:14;;;;;;;18.20;17.60;;;21.80;99.90;;;;;;5051234;28;20535;-66
2023/10/13 03:40:41;;;;;;;18.63;17.93;;;21.90;99.90;;;;;;5043143;28;20511;-65
2023/10/13 03:43:10;;;;;;;18.50;17.90;;;21.80;99.90;;;;;;5051359;28;20460;-66
2023/10/13 03:45:39;;;;;;;17.37;16.77;;;21.80;99.90;;;;;;5050992;28;20456;-66
2023/10/13 03:48:27;;;;;;;18.80;18.20;;;21.80;99.90;;;;;;5042498;28;20843;-65
2023/10/13 03:51:02;;;;;;;18.57;17.90;;;21.80;99.90;;;;;;5051374;28;20439;-66
2023/10/13 03:53:33;;;;;;;19.60;18.90;;;21.80;99.90;;;;;;5051123;28;20444;-65
2023/10/13 03:56:08;;;;;;;18.50;17.87;;;21.80;99.90;;;;;;5043066;28;20486;-65
2023/10/13 03:58:36;;;;;;;18.97;18.37;;;21.90;99.90;;;;;;5051125;28;20472;-65
2023/10/13 04:01:04;;;;;;;18.73;18.03;;;21.80;99.90;;;;;;5051126;28;20472;-66
2023/10/13 04:03:36;;;;;;;18.60;18.00;;;21.90;99.90;;;;;;5056536;28;20479;-65
2023/10/13 04:06:08;;;;;;;18.97;18.37;;;21.80;99.90;;;;;;5051265;28;20437;-66
2023/10/13 04:08:49;;;;;;;19.33;18.63;;;21.80;99.90;;;;;;5051157;28;20463;-66
2023/10/13 04:16:50;;;;;;;20.10;19.40;;;21.80;99.90;;;;;;5049078;28;20481;-65
2023/10/13 04:19:23;;;;;;;20.57;19.87;;;21.80;99.90;;;;;;5051139;28;21399;-65
2023/10/13 04:22:14;;;;;;;20.00;19.30;;;21.80;99.90;;;;;;5050947;28;20581;-65
2023/10/13 04:27:44;;;;;;;20.07;19.47;;;21.80;99.90;;;;;;5048228;28;20515;-65
2023/10/13 04:30:11;;;;;;;18.90;18.30;;;21.80;99.90;;;;;;5051092;28;20831;-66
2023/10/13 04:32:46;;;;;;;20.67;19.97;;;21.80;99.90;;;;;;5050756;28;20437;-65
2023/10/13 04:35:18;;;;;;;19.73;18.93;;;21.80;99.90;;;;;;5050763;28;20527;-66
2023/10/13 04:37:54;;;;;;;19.50;18.80;;;21.80;99.90;;;;;;5039367;28;20476;-66
2023/10/13 04:40:24;;;;;;;18.97;18.30;;;21.80;99.90;;;;;;5047726;28;20447;-66
2023/10/13 04:42:53;;;;;;;19.93;19.13;;;21.80;99.90;;;;;;5050830;28;20475;-66
2023/10/13 04:48:27;;;;;;;21.40;20.03;;;21.90;99.90;;;;;;5051041;28;20459;-65
2023/10/13 04:59:35;;;;;;;23.00;21.00;;;22.00;99.90;;;;;;5050624;28;20458;-66
2023/10/13 05:49:02;;;;;;;20.77;19.67;;;21.90;99.90;;;;;;5033012;28;20820;-66
2023/10/13 05:51:33;;;;;;;22.07;20.27;;;21.90;99.90;;;;;;5033105;28;20528;-67
2023/10/13 06:29:48;;;;;;;22.80;21.40;;;21.90;99.90;;;;;;5032594;28;20495;-66
2023/10/13 06:32:16;;;;;;;21.00;19.77;;;21.90;99.90;;;;;;5032449;28;20469;-66
2023/10/13 06:34:44;;;;;;;22.00;20.43;;;21.90;99.90;;;;;;5032185;28;20862;-66
2023/10/13 06:37:23;;;;;;;22.60;21.20;;;21.90;99.90;;;;;;5032347;28;20477;-66
2023/10/13 06:39:50;;;;;;;21.73;20.40;;;21.90;99.90;;;;;;5024410;28;20437;-66
2023/10/13 06:42:19;;;;;;;20.70;19.83;;;21.90;99.90;;;;;;5032183;28;20531;-66
2023/10/13 06:44:46;;;;;;;19.53;18.63;;;21.90;99.90;;;;;;5032069;28;20473;-66
2023/10/13 06:47:14;;;;;;;21.63;20.33;;;21.90;99.90;;;;;;5032224;28;20449;-66
2023/10/13 06:49:43;;;;;;;19.97;19.00;;;21.90;99.90;;;;;;5031969;28;20910;-66
2023/10/13 06:52:10;;;;;;;20.80;19.50;;;21.90;99.90;;;;;;5031985;28;20445;-66
2023/10/13 06:54:39;;;;;;;21.30;20.23;;;21.90;99.90;;;;;;5031791;28;20445;-66
2023/10/13 06:57:07;;;;;;;21.90;20.70;;;21.90;99.90;;;;;;5032103;28;20448;-66
2023/10/13 06:59:34;;;;;;;21.63;20.50;;;21.90;99.90;;;;;;5031796;28;20527;-65
2023/10/13 07:02:05;;;;;;;21.23;20.20;;;21.90;99.90;;;;;;5031724;28;20477;-66
2023/10/13 07:04:34;;;;;;;22.80;21.60;;;21.90;99.90;;;;;;5031685;28;20444;-66
2023/10/13 07:07:05;;;;;;;22.57;21.10;;;21.90;99.90;;;;;;5032113;28;20503;-66
2023/10/13 07:09:42;;;;;;;22.07;21.03;;;21.90;99.90;;;;;;5031696;28;20813;-66
2023/10/13 07:12:16;;;;;;;21.10;20.20;;;21.90;99.90;;;;;;5031735;28;20437;-66
2023/10/13 07:14:51;;;;;;;21.67;20.40;;;21.90;99.90;;;;;;5031494;28;20962;-66
2023/10/13 07:17:23;;;;;;;21.50;20.30;;;21.90;99.90;;;;;;5031641;28;20523;-66
2023/10/13 07:19:56;;;;;;;20.73;19.60;;;21.90;99.90;;;;;;5031884;28;20943;-66
2023/10/13 07:22:25;;;;;;;19.97;18.63;;;21.90;99.90;;;;;;5030841;28;20477;-66
2023/10/13 07:24:52;;;;;;;20.63;19.53;;;21.90;99.90;;;;;;5031504;28;20958;-66
2023/10/13 07:27:24;;;;;;;20.33;19.20;;;21.90;99.90;;;;;;5031540;28;20480;-66
2023/10/13 07:29:56;;;;;;;21.10;20.20;;;21.90;99.90;;;;;;5031664;28;20491;-66
2023/10/13 07:32:25;;;;;;;21.77;20.80;;;21.90;99.90;;;;;;5031470;28;20507;-66
2023/10/13 07:34:57;;;;;;;20.67;19.87;;;21.90;99.90;;;;;;5023546;28;20445;-66
2023/10/13 07:37:29;;;;;;;20.93;20.00;;;21.90;99.90;;;;;;5031273;28;20477;-66
2023/10/13 07:39:58;;;;;;;20.80;19.70;;;21.90;99.90;;;;;;5024027;28;20441;-65
2023/10/13 07:42:31;;;;;;;20.47;19.43;;;21.90;99.90;;;;;;5031329;28;20854;-66
2023/10/13 07:44:59;;;;;;;19.70;18.60;;;21.90;99.90;;;;;;5024055;28;20943;-66
2023/10/13 07:47:27;;;;;;;19.70;18.80;;;21.90;99.90;;;;;;5031304;28;20778;-66
2023/10/13 07:49:56;;;;;;;21.60;20.50;;;21.90;99.90;;;;;;5023732;28;20905;-66
2023/10/13 07:52:37;;;;;;;21.27;20.13;;;21.90;99.90;;;;;;5031231;28;20445;-66
2023/10/13 07:55:13;;;;;;;20.77;19.73;;;21.90;99.90;;;;;;5024659;28;20516;-66
2023/10/13 07:57:53;;;;;;;21.30;20.40;;;21.90;99.90;;;;;;5031228;28;20469;-66
2023/10/13 08:00:29;;;;;;;20.90;20.10;;;22.00;99.90;;;;;;5031233;28;20455;-65
2023/10/13 08:03:07;;;;;;;21.07;20.00;;;21.90;99.90;;;;;;5031000;28;20487;-66
2023/10/13 08:05:55;;;;;;;21.07;20.17;;;21.90;99.90;;;;;;5030760;28;20951;-65
2023/10/13 08:08:25;;;;;;;20.83;19.80;;;21.90;99.90;;;;;;5031077;28;20559;-65
2023/10/13 08:10:56;;;;;;;20.23;19.43;;;21.90;99.90;;;;;;5031131;28;20449;-66
2023/10/13 08:13:23;;;;;;;20.27;19.43;;;22.00;99.90;;;;;;5031033;28;20437;-65
2023/10/13 08:15:52;;;;;;;22.83;21.80;;;22.00;99.90;;;;;;5030965;28;20437;-66
2023/10/13 08:18:29;;;;;;;21.30;20.40;;;21.90;99.90;;;;;;5030936;28;20472;-66
2023/10/13 08:21:03;;;;;;;22.70;21.40;;;22.00;99.90;;;;;;5031169;28;20445;-66
2023/10/13 08:23:57;;;;;;;21.20;20.40;;;22.00;99.90;;;;;;5030534;28;20481;-67
2023/10/13 08:32:14;;;;;;;21.70;20.80;;;21.90;99.90;;;;;;5017874;28;20476;-66
2023/10/13 08:35:00;;;;;;;20.53;19.73;;;22.00;99.90;;;;;;5033782;28;20441;-67
2023/10/13 08:37:35;;;;;;;21.53;20.63;;;22.00;99.90;;;;;;5034491;28;20437;-65
2023/10/13 08:43:09;;;;;;;21.30;20.43;;;22.00;99.90;;;;;;5034193;28;20476;-66
2023/10/13 08:45:59;;;;;;;22.10;21.27;;;22.00;99.90;;;;;;5034298;28;20448;-66
2023/10/13 08:48:32;;;;;;;23.30;22.20;;;22.00;99.90;;;;;;5034224;28;20530;-67
2023/10/13 08:53:47;;;;;;;23.17;22.07;;;22.00;99.90;;;;;;5031280;28;20437;-66
2023/10/13 08:56:17;;;;;;;21.43;20.53;;;22.00;99.90;;;;;;5034231;28;20940;-66
2023/10/13 09:01:37;;;;;;;22.30;21.40;;;22.00;99.90;;;;;;5034172;28;20931;-66
2023/10/13 09:07:03;;;;;;;23.43;22.43;;;22.00;99.90;;;;;;5030382;28;20429;-65
2023/10/13 09:09:59;;;;;;;23.10;22.17;;;22.00;99.90;;;;;;5033854;28;20461;-66
2023/10/13 09:12:38;;;;;;;22.83;21.83;;;22.00;99.90;;;;;;5033909;28;20936;-66
2023/10/13 09:15:19;;;;;;;23.47;22.40;;;22.00;99.90;;;;;;5027215;28;20444;-66
2023/10/13 09:17:51;;;;;;;23.60;22.60;;;22.00;99.90;;;;;;5033770;28;20548;-66
2023/10/13 09:20:32;;;;;;;21.83;20.90;;;22.00;99.90;;;;;;5033816;28;20445;-66
2023/10/13 09:23:08;;;;;;;22.40;21.60;;;22.00;99.90;;;;;;5026213;28;20477;-66
2023/10/13 09:25:38;;;;;;;22.77;21.70;;;22.00;99.90;;;;;;5033581;28;21190;-66
2023/10/13 09:28:14;;;;;;;22.27;21.37;;;22.10;99.90;;;;;;5033935;28;20493;-66
2023/10/13 09:30:45;;;;;;;23.73;22.83;;;22.00;99.90;;;;;;5033879;28;20445;-66
2023/10/13 09:33:15;;;;;;;22.40;21.70;;;22.00;99.90;;;;;;5033509;28;20465;-66
2023/10/13 09:35:49;;;;;;;23.40;22.23;;;22.00;99.90;;;;;;5033315;28;20445;-65
2023/10/13 09:38:16;;;;;;;22.27;21.57;;;22.10;99.90;;;;;;5033279;28;20476;-66
2023/10/13 09:40:49;;;;;;;22.30;21.50;;;22.10;99.90;;;;;;5033420;28;20499;-66
2023/10/13 09:43:19;;;;;;;22.27;21.43;;;22.10;99.90;;;;;;5033403;28;20473;-67
2023/10/13 09:46:01;;;;;;;21.53;20.80;;;22.10;99.90;;;;;;5032399;28;20817;-66
2023/10/13 09:48:34;;;;;;;21.37;20.57;;;22.10;99.90;;;;;;5033286;28;20548;-66
2023/10/13 09:51:04;;;;;;;22.30;21.40;;;22.10;99.90;;;;;;5026008;28;20967;-66
2023/10/13 09:53:33;;;;;;;23.07;22.10;;;22.10;99.90;;;;;;5033051;28;20441;-66
2023/10/13 09:56:13;;;;;;;21.60;20.90;;;22.10;99.90;;;;;;5025456;28;20450;-66
2023/10/13 09:58:51;;;;;;;21.20;20.33;;;22.10;99.90;;;;;;5033080;28;20551;-65
2023/10/13 10:01:30;;;;;;;22.03;21.23;;;22.10;99.90;;;;;;5033185;28;20441;-66
2023/10/13 10:04:08;;;;;;;25.00;23.93;;;22.10;99.90;;;;;;5032821;28;20928;-66
2023/10/13 10:06:39;;;;;;;23.50;22.60;;;22.10;99.90;;;;;;5033213;28;20448;-66
2023/10/13 10:09:11;;;;;;;21.97;21.13;;;22.10;99.90;;;;;;5032998;28;20469;-66
2023/10/13 10:12:08;;;;;;;22.80;22.00;;;22.10;99.90;;;;;;5032818;28;20517;-66
2023/10/13 10:15:10;;;;;;;24.40;23.50;;;22.10;99.90;;;;;;5032828;28;20472;-66
2023/10/13 10:17:42;;;;;;;24.33;23.30;;;22.10;99.90;;;;;;5032803;28;20811;-66
2023/10/13 10:20:19;;;;;;;23.07;22.17;;;22.10;99.90;;;;;;5032719;28;20473;-65
2023/10/13 10:22:58;;;;;;;24.83;23.93;;;22.10;99.90;;;;;;5032442;28;20523;-66
2023/10/13 10:25:34;;;;;;;23.53;22.73;;;22.10;99.90;;;;;;5032558;28;20486;-66
2023/10/13 10:28:06;;;;;;;23.43;22.43;;;22.10;99.90;;;;;;5032498;28;20514;-66
2023/10/13 10:30:34;;;;;;;23.70;22.60;;;22.10;99.90;;;;;;5032386;28;20477;-65
2023/10/13 10:33:07;;;;;;;21.87;21.07;;;22.10;99.90;;;;;;5032396;28;20469;-65
2023/10/13 10:35:36;;;;;;;24.10;23.20;;;22.10;99.90;;;;;;5032189;28;20983;-66
2023/10/13 10:38:15;;;;;;;23.00;22.20;;;22.10;99.90;;;;;;5032286;28;20890;-65
2023/10/13 10:40:56;;;;;;;23.97;23.17;;;22.10;99.90;;;;;;5032291;28;20822;-66
2023/10/13 10:43:28;;;;;;;22.90;22.03;;;22.10;99.90;;;;;;5032148;28;20520;-66
2023/10/13 10:45:59;;;;;;;22.60;21.80;;;22.10;99.90;;;;;;5032185;28;20986;-66
2023/10/13 10:48:31;;;;;;;23.27;22.47;;;22.10;99.90;;;;;;5032282;28;20469;-66
2023/10/13 10:51:06;;;;;;;23.10;22.30;;;22.10;99.90;;;;;;5024035;28;20524;-67
2023/10/13 10:53:43;;;;;;;21.90;21.10;;;22.10;99.90;;;;;;5031976;28;20512;-66
2023/10/13 10:56:36;;;;;;;22.83;22.03;;;22.10;99.90;;;;;;5025495;28;20444;-66
2023/10/13 10:59:09;;;;;;;22.70;21.83;;;22.20;99.90;;;;;;5024488;28;20950;-66
2023/10/13 11:01:47;;;;;;;21.47;20.67;;;22.20;99.90;;;;;;5031884;28;20941;-66
2023/10/13 11:04:18;;;;;;;21.97;21.07;;;22.20;99.90;;;;;;5031703;28;20492;-66
2023/10/13 11:06:49;;;;;;;22.50;21.60;;;22.20;99.90;;;;;;5031870;28;20451;-66
2023/10/13 11:09:31;;;;;;;21.60;20.90;;;22.20;99.90;;;;;;5031876;28;21061;-65
2023/10/13 11:12:14;;;;;;;23.27;22.40;;;22.20;99.90;;;;;;5031514;28;20445;-66
2023/10/13 11:14:46;;;;;;;21.60;20.80;;;22.20;99.90;;;;;;5031506;28;20445;-66
2023/10/13 11:17:24;;;;;;;22.90;22.10;;;22.20;99.90;;;;;;5031877;28;20784;-66
2023/10/13 11:19:52;;;;;;;23.53;22.63;;;22.20;99.90;;;;;;5031648;28;20524;-66
2023/10/13 11:22:32;;;;;;;22.17;21.40;;;22.20;99.90;;;;;;5031463;28;20455;-66
2023/10/13 11:25:00;;;;;;;22.20;21.40;;;22.20;99.90;;;;;;5031314;28;20444;-66
2023/10/13 11:27:44;;;;;;;23.27;22.37;;;22.20;99.90;;;;;;5031542;28;20442;-66
2023/10/13 11:30:14;;;;;;;22.93;22.13;;;22.20;99.90;;;;;;5024983;28;20441;-66
2023/10/13 11:32:42;;;;;;;24.63;23.73;;;22.20;99.90;;;;;;5031562;28;20437;-66
2023/10/13 11:35:19;;;;;;;21.57;20.87;;;22.20;99.90;;;;;;5031380;28;20453;-66
2023/10/13 11:37:56;;;;;;;23.27;22.47;;;22.20;99.90;;;;;;5056470;22;20476;-68
2023/10/13 11:40:43;;;;;;;22.70;21.90;;;22.20;99.90;;;;;;5011869;28;20512;-66
2023/10/13 11:43:14;;;;;;;21.57;20.77;;;22.20;99.90;;;;;;5004894;28;20856;-66
2023/10/13 11:46:12;;;;;;;22.60;21.77;;;22.20;99.90;;;;;;5011557;28;20442;-66
2023/10/13 11:48:34;;;;;;;23.77;22.97;;;22.20;99.90;;;;;;5011504;28;20469;-68
2023/10/13 11:51:06;;;;;;;22.20;21.30;;;22.20;99.90;;;;;;5003533;28;20544;-73
2023/10/13 11:53:34;;;;;;;23.00;22.20;;;22.30;99.90;;;;;;5009831;28;20457;-71
2023/10/13 11:56:08;;;;;;;23.53;22.53;;;22.30;99.90;;;;;;5003677;28;20949;-73
2023/10/13 11:58:35;;;;;;;24.23;23.23;;;22.30;99.90;;;;;;5011820;28;20545;-71
2023/10/13 12:01:20;;;;;;;23.60;22.80;;;22.30;99.90;;;;;;5003644;28;20480;-71
2023/10/13 12:06:46;;;;;;;23.30;22.40;;;22.30;99.90;;;;;;5011797;28;20437;-68
2023/10/13 12:09:32;;;;;;;25.60;24.70;;;22.30;99.90;;;;;;5007334;28;20492;-69
2023/10/13 12:12:02;;;;;;;21.53;20.73;;;22.30;99.90;;;;;;5015366;28;20473;-68
2023/10/13 12:14:29;;;;;;;23.33;22.43;;;22.30;99.90;;;;;;5015549;28;20992;-68
2023/10/13 12:17:03;;;;;;;21.43;20.63;;;22.30;99.90;;;;;;5015304;28;20586;-68
2023/10/13 12:19:31;;;;;;;22.83;21.93;;;22.30;99.90;;;;;;5015223;28;20470;-69
2023/10/13 12:22:04;;;;;;;22.60;21.80;;;22.30;99.90;;;;;;5015146;28;20472;-68
2023/10/13 12:24:39;;;;;;;21.90;21.00;;;22.30;99.90;;;;;;5015145;28;20508;-68
2023/10/13 12:27:18;;;;;;;24.33;23.53;;;22.30;99.90;;;;;;5007760;28;20844;-68
2023/10/13 12:29:46;;;;;;;23.23;22.43;;;22.30;99.90;;;;;;5014906;28;20466;-68
2023/10/13 12:32:20;;;;;;;22.57;21.77;;;22.30;99.90;;;;;;5015045;28;20450;-68
2023/10/13 12:34:59;;;;;;;23.40;22.60;;;22.40;99.90;;;;;;5014828;28;20445;-69
2023/10/13 12:37:50;;;;;;;23.77;22.80;;;22.30;99.90;;;;;;5015116;28;20786;-69
2023/10/13 12:49:03;;;;;;;24.03;23.17;;;22.30;99.90;;;;;;4997292;28;20474;-69
2023/10/13 12:51:50;;;;;;;24.37;23.50;;;22.40;99.90;;;;;;5010222;28;20556;-68
2023/10/13 12:54:20;;;;;;;22.77;21.77;;;22.40;99.90;;;;;;5008282;28;20481;-68
2023/10/13 12:56:47;;;;;;;24.70;23.80;;;22.40;99.90;;;;;;5014452;28;20508;-69
2023/10/13 12:59:14;;;;;;;24.70;23.80;;;22.40;99.90;;;;;;5014525;28;20500;-68
2023/10/13 13:01:43;;;;;;;24.40;23.50;;;22.40;99.90;;;;;;5014581;28;20823;-69
2023/10/13 13:04:19;;;;;;;23.70;22.80;;;22.40;99.90;;;;;;5014140;28;20484;-71
2023/10/13 13:06:47;;;;;;;23.40;22.50;;;22.40;99.90;;;;;;5014382;28;20529;-71
2023/10/13 13:09:14;;;;;;;24.50;23.50;;;22.40;99.90;;;;;;5014269;28;20500;-71
2023/10/13 13:11:41;;;;;;;24.20;23.30;;;22.40;99.90;;;;;;5014225;28;20863;-71
2023/10/13 13:14:08;;;;;;;25.07;24.17;;;22.40;99.90;;;;;;5014025;28;20465;-70
2023/10/13 13:16:38;;;;;;;23.63;22.83;;;22.40;99.90;;;;;;5014282;28;20446;-71
2023/10/13 13:19:10;;;;;;;23.00;22.20;;;22.40;99.90;;;;;;5005956;28;20816;-71
2023/10/13 13:21:39;;;;;;;24.50;23.60;;;22.40;99.90;;;;;;5013385;28;20442;-71
2023/10/13 13:24:10;;;;;;;22.20;21.40;;;22.40;99.90;;;;;;5006041;28;20513;-70
2023/10/13 13:26:40;;;;;;;24.40;23.40;;;22.40;99.90;;;;;;5014022;28;20442;-71
2023/10/13 13:29:10;;;;;;;23.17;22.27;;;22.40;99.90;;;;;;5006562;28;20456;-73
2023/10/13 13:31:41;;;;;;;24.53;23.47;;;22.50;99.90;;;;;;5013958;28;20442;-69
2023/10/13 13:34:10;;;;;;;23.77;22.87;;;22.50;99.90;;;;;;5005807;28;20452;-71
2023/10/13 13:36:37;;;;;;;24.50;23.60;;;22.50;99.90;;;;;;5013814;28;20953;-73
2023/10/13 13:39:06;;;;;;;23.93;23.03;;;22.60;99.90;;;;;;5013623;28;20497;-72
2023/10/13 13:41:34;;;;;;;23.17;22.37;;;22.60;99.90;;;;;;5013975;28;20476;-72
2023/10/13 13:44:13;;;;;;;23.10;22.30;;;22.70;99.90;;;;;;5013483;28;20486;-71
2023/10/13 13:46:42;;;;;;;22.60;21.80;;;22.70;99.90;;;;;;5013928;28;20446;-72
2023/10/13 13:49:17;;;;;;;23.50;22.30;;;22.70;99.90;;;;;;5006180;28;20470;-72
2023/10/13 13:51:51;;;;;;;22.30;21.50;;;22.70;99.90;;;;;;5013376;28;20452;-72
2023/10/13 13:54:20;;;;;;;22.80;21.63;;;22.70;99.90;;;;;;5013397;28;20442;-73
2023/10/13 13:56:47;;;;;;;22.87;22.07;;;22.80;99.90;;;;;;5013286;28;20480;-72
2023/10/13 13:59:19;;;;;;;24.97;24.17;;;22.80;99.90;;;;;;5013495;28;20490;-73
2023/10/13 14:01:47;;;;;;;25.80;24.90;;;22.80;99.90;;;;;;5013300;28;20452;-73
2023/10/13 14:04:17;;;;;;;24.63;23.73;;;22.80;99.90;;;;;;5013159;28;20481;-73
2023/10/13 14:06:44;;;;;;;24.57;23.67;;;22.80;99.90;;;;;;5013286;28;20442;-73
2023/10/13 14:09:15;;;;;;;23.67;22.77;;;22.80;99.90;;;;;;5013239;28;20885;-73
2023/10/13 14:14:37;;;;;;;24.03;23.13;;;22.90;99.90;;;;;;4988669;28;20434;-72
2023/10/13 14:17:06;;;;;;;23.70;22.80;;;22.90;99.90;;;;;;5013158;28;20525;-71
2023/10/13 14:19:34;;;;;;;24.10;23.20;;;22.90;99.90;;;;;;5012962;28;20493;-70
2023/10/13 14:22:06;;;;;;;23.60;22.67;;;22.90;99.90;;;;;;5012868;28;20485;-70
2023/10/13 14:24:34;;;;;;;24.77;23.77;;;22.90;99.90;;;;;;5006586;28;20490;-74
2023/10/13 14:27:09;;;;;;;25.27;24.27;;;22.90;99.90;;;;;;5001737;28;20448;-74
2023/10/13 14:29:40;;;;;;;25.30;24.30;;;23.30;99.90;;;;;;5009209;28;20478;-70
2023/10/13 14:32:11;;;;;;;25.80;24.80;;;23.40;99.90;;;;;;5012930;28;20446;-73
2023/10/13 14:34:39;;;;;;;26.10;25.00;;;23.40;99.90;;;;;;5013091;28;20446;-70
2023/10/13 14:37:06;;;;;;;25.77;24.87;;;23.20;99.90;;;;;;5012766;28;20470;-71
2023/10/13 14:39:34;;;;;;;27.80;26.47;;;23.20;99.90;;;;;;5013355;28;20501;-72
2023/10/13 14:42:05;;;;;;;27.47;26.13;;;23.10;99.90;;;;;;5013428;28;20481;-73
2023/10/13 14:44:33;;;;;;;25.33;24.33;;;23.20;99.90;;;;;;5013253;28;21000;-71
2023/10/13 14:47:00;;;;;;;26.13;24.90;;;23.10;99.90;;;;;;5012972;28;20532;-70
2023/10/13 14:49:27;;;;;;;25.53;24.33;;;23.10;99.90;;;;;;5013487;28;20458;-72
2023/10/13 14:51:55;;;;;;;26.13;25.03;;;23.10;99.90;;;;;;5013342;28;20968;-72
2023/10/13 14:54:32;;;;;;;25.57;24.57;;;23.10;99.90;;;;;;5012892;28;20621;-71
2023/10/13 14:57:00;;;;;;;26.13;24.83;;;23.20;99.90;;;;;;5012998;28;20977;-72
2023/10/13 14:59:32;;;;;;;26.10;25.10;;;23.10;99.90;;;;;;5013026;28;20550;-71
2023/10/13 15:02:02;;;;;;;27.83;26.60;;;23.10;99.90;;;;;;5012479;28;20480;-72
2023/10/13 15:04:32;;;;;;;26.67;25.17;;;23.10;99.90;;;;;;5012043;28;21014;-71
2023/10/13 15:07:01;;;;;;;23.93;22.83;;;23.10;99.90;;;;;;5012810;28;20450;-71
2023/10/13 15:09:28;;;;;;;25.57;24.50;;;23.10;99.90;;;;;;5012997;28;20470;-69